Time;durP1;ratioP1;P1;durP2;ratioP2;P2;SDS_P1;SDS_P2;PMS_P1;PMS_P2;Temp;Humidity;BMP_temperature;BMP_pressure;BME280_temperature;BME280_humidity;BME280_pressure;Samples;Min_cycle;Max_cycle;Signal;HPM_P1;HPM_P2
2023/06/24 00:00:09;;;;;;;11.70;10.70;;;16.70;99.90;;;;;;4991197;28;21015;-58
2023/06/24 00:02:37;;;;;;;11.30;10.20;;;16.60;99.90;;;;;;4993885;28;20495;-58
2023/06/24 00:05:08;;;;;;;12.03;10.97;;;16.60;99.90;;;;;;4992108;28;20499;-61
2023/06/24 00:07:43;;;;;;;11.07;9.93;;;16.60;99.90;;;;;;4995632;28;20555;-58
2023/06/24 00:10:13;;;;;;;10.90;9.90;;;16.60;99.90;;;;;;4993701;28;20996;-58
2023/06/24 00:12:41;;;;;;;12.80;11.47;;;16.60;99.90;;;;;;4989130;28;21522;-58
2023/06/24 00:15:11;;;;;;;12.23;11.10;;;16.50;99.90;;;;;;4989833;28;20497;-58
2023/06/24 00:17:40;;;;;;;12.57;11.40;;;16.50;99.90;;;;;;4989246;28;20505;-58
2023/06/24 00:20:10;;;;;;;12.37;11.17;;;16.50;99.90;;;;;;4993605;28;20606;-58
2023/06/24 00:22:48;;;;;;;11.37;10.47;;;16.50;99.90;;;;;;4993860;28;20486;-58
2023/06/24 00:25:18;;;;;;;12.23;11.00;;;16.40;99.90;;;;;;4993595;28;20513;-58
2023/06/24 00:27:46;;;;;;;12.47;11.37;;;16.40;99.90;;;;;;4991359;28;21415;-58
2023/06/24 00:30:15;;;;;;;12.63;11.53;;;16.40;99.90;;;;;;4989897;28;20468;-58
2023/06/24 00:32:43;;;;;;;11.87;10.63;;;16.30;99.90;;;;;;4988990;28;20642;-58
2023/06/24 00:35:13;;;;;;;12.00;10.80;;;16.30;99.90;;;;;;4987354;28;20498;-57
2023/06/24 00:37:41;;;;;;;12.67;11.43;;;16.30;99.90;;;;;;4999229;28;20787;-58
2023/06/24 00:40:15;;;;;;;12.10;10.93;;;16.30;99.90;;;;;;5001992;28;20514;-58
2023/06/24 00:42:45;;;;;;;13.23;12.10;;;16.20;99.90;;;;;;4991360;28;21205;-58
2023/06/24 00:45:16;;;;;;;11.80;10.80;;;16.20;99.90;;;;;;4993452;28;20492;-58
2023/06/24 00:47:45;;;;;;;12.63;11.43;;;16.20;99.90;;;;;;4992853;28;20575;-58
2023/06/24 00:50:13;;;;;;;12.87;10.67;;;16.20;99.90;;;;;;4990937;28;20568;-58
2023/06/24 00:52:42;;;;;;;11.60;10.40;;;16.10;99.90;;;;;;4996338;28;20496;-58
2023/06/24 00:55:11;;;;;;;13.07;11.00;;;16.10;99.90;;;;;;4997228;28;20571;-58
2023/06/24 00:57:40;;;;;;;11.33;10.33;;;16.10;99.90;;;;;;4994482;28;20846;-58
2023/06/24 01:00:13;;;;;;;13.03;11.67;;;16.10;99.90;;;;;;5000290;28;20564;-58
2023/06/24 01:02:44;;;;;;;12.50;11.37;;;16.00;99.90;;;;;;4994281;28;20703;-58
2023/06/24 01:05:12;;;;;;;13.00;11.70;;;16.00;99.90;;;;;;4992977;28;20582;-58
2023/06/24 01:07:42;;;;;;;12.10;11.00;;;16.00;99.90;;;;;;4995664;28;20467;-58
2023/06/24 01:10:12;;;;;;;11.80;10.70;;;16.00;99.90;;;;;;4985190;28;21137;-58
2023/06/24 01:12:43;;;;;;;12.57;11.47;;;16.00;99.90;;;;;;4994612;28;20567;-58
2023/06/24 01:15:12;;;;;;;11.70;10.70;;;15.90;99.90;;;;;;4994419;28;20500;-58
2023/06/24 01:17:49;;;;;;;12.10;11.00;;;15.90;99.90;;;;;;4991196;28;20471;-58
2023/06/24 01:20:24;;;;;;;12.13;10.90;;;15.90;99.90;;;;;;4992433;28;22940;-58
2023/06/24 01:23:35;;;;;;;12.20;11.07;;;15.90;99.90;;;;;;4993933;28;20490;-58
2023/06/24 01:26:19;;;;;;;13.63;12.23;;;15.90;99.90;;;;;;5005490;28;20564;-58
2023/06/24 01:29:21;;;;;;;12.30;11.10;;;15.80;99.90;;;;;;5008918;28;20484;-57
2023/06/24 01:31:52;;;;;;;12.97;11.67;;;15.80;99.90;;;;;;4985944;28;20927;-57
2023/06/24 01:34:26;;;;;;;12.57;11.47;;;15.80;99.90;;;;;;4985559;28;20567;-58
2023/06/24 01:37:03;;;;;;;11.30;10.20;;;15.70;99.90;;;;;;4989805;28;20467;-58
2023/06/24 01:39:35;;;;;;;10.90;9.90;;;15.70;99.90;;;;;;4989967;28;20569;-58
2023/06/24 01:42:10;;;;;;;12.40;11.20;;;15.70;99.90;;;;;;4984578;28;21013;-57
2023/06/24 01:44:41;;;;;;;12.17;11.07;;;15.60;99.90;;;;;;4993777;28;20496;-58
2023/06/24 01:47:12;;;;;;;11.43;10.23;;;15.60;99.90;;;;;;4999177;28;20559;-58
2023/06/24 01:49:42;;;;;;;12.80;11.60;;;15.60;99.90;;;;;;4991644;28;20483;-58
2023/06/24 01:52:11;;;;;;;12.00;10.90;;;15.50;99.90;;;;;;4991567;28;20571;-58
2023/06/24 01:54:42;;;;;;;11.47;10.30;;;15.50;99.90;;;;;;4996470;28;20514;-58
2023/06/24 01:57:12;;;;;;;11.80;10.70;;;15.50;99.90;;;;;;4997313;28;20843;-58
2023/06/24 01:59:43;;;;;;;12.43;10.53;;;15.50;99.90;;;;;;4995270;28;20543;-58
2023/06/24 02:02:14;;;;;;;11.93;10.93;;;15.40;99.90;;;;;;4990690;28;20485;-57
2023/06/24 02:04:44;;;;;;;12.40;11.20;;;15.40;99.90;;;;;;4995766;28;20495;-58
2023/06/24 02:07:13;;;;;;;12.03;10.83;;;15.40;99.90;;;;;;4998561;28;20496;-58
2023/06/24 02:09:43;;;;;;;11.57;10.57;;;15.30;99.90;;;;;;4997457;28;20477;-58
2023/06/24 02:12:13;;;;;;;11.17;10.17;;;15.30;99.90;;;;;;4998703;28;20515;-58
2023/06/24 02:14:42;;;;;;;11.20;10.20;;;15.30;99.90;;;;;;4993907;28;20494;-58
2023/06/24 02:17:13;;;;;;;11.40;10.40;;;15.30;99.90;;;;;;4994368;28;20473;-58
2023/06/24 02:19:43;;;;;;;11.60;10.60;;;15.30;99.90;;;;;;4989562;28;20530;-58
2023/06/24 02:22:12;;;;;;;12.30;11.20;;;15.20;99.90;;;;;;5003828;28;22418;-58
2023/06/24 02:24:41;;;;;;;11.70;10.50;;;15.20;99.90;;;;;;5017843;28;20547;-57
2023/06/24 02:27:11;;;;;;;12.50;11.03;;;15.20;99.90;;;;;;5022075;28;20464;-60
2023/06/24 02:29:40;;;;;;;12.60;11.40;;;15.20;99.90;;;;;;5011510;28;20453;-56
2023/06/24 02:32:09;;;;;;;12.20;10.97;;;15.10;99.90;;;;;;5013944;28;20477;-58
2023/06/24 02:34:39;;;;;;;11.27;10.27;;;15.10;99.90;;;;;;5012327;28;20524;-57
2023/06/24 02:37:07;;;;;;;12.40;11.30;;;15.10;99.90;;;;;;5014252;28;20985;-61
2023/06/24 02:39:37;;;;;;;11.43;10.40;;;15.10;99.90;;;;;;5011162;28;20472;-58
2023/06/24 02:42:06;;;;;;;11.87;10.77;;;15.00;99.90;;;;;;5013336;28;20520;-57
2023/06/24 02:44:34;;;;;;;11.30;10.20;;;15.00;99.90;;;;;;5015260;28;20516;-58
2023/06/24 02:47:02;;;;;;;12.07;10.90;;;15.00;99.90;;;;;;5002000;28;20468;-58
2023/06/24 02:49:31;;;;;;;12.40;11.10;;;15.00;99.90;;;;;;4992163;28;20484;-57
2023/06/24 02:52:01;;;;;;;11.50;10.30;;;14.90;99.90;;;;;;4989771;28;20492;-58
2023/06/24 02:54:29;;;;;;;12.33;11.10;;;14.90;99.90;;;;;;4997554;28;20492;-58
2023/06/24 02:56:58;;;;;;;11.87;10.77;;;14.90;99.90;;;;;;5011847;28;20469;-58
2023/06/24 02:59:28;;;;;;;11.73;10.73;;;14.90;99.90;;;;;;5009660;28;20469;-58
2023/06/24 03:01:57;;;;;;;11.10;10.20;;;14.90;99.90;;;;;;4998318;28;20495;-58
2023/06/24 03:04:25;;;;;;;12.00;10.80;;;14.90;99.90;;;;;;5000578;28;20495;-59
2023/06/24 03:06:54;;;;;;;12.77;11.47;;;14.80;99.90;;;;;;4996711;28;20468;-58
2023/06/24 03:09:23;;;;;;;12.33;10.73;;;14.80;99.90;;;;;;4996610;28;20473;-59
2023/06/24 03:11:51;;;;;;;12.60;11.40;;;14.80;99.90;;;;;;5001072;28;20495;-57
2023/06/24 03:14:19;;;;;;;11.70;10.60;;;14.80;99.90;;;;;;4995341;28;20516;-58
2023/06/24 03:16:47;;;;;;;12.30;11.20;;;14.80;99.90;;;;;;4991354;28;20486;-58
2023/06/24 03:19:15;;;;;;;12.00;10.50;;;14.80;99.90;;;;;;4996626;28;20474;-58
2023/06/24 03:21:43;;;;;;;12.00;11.00;;;14.80;99.90;;;;;;4990101;28;20489;-59
2023/06/24 03:24:11;;;;;;;12.03;10.93;;;14.80;99.90;;;;;;4998208;28;20602;-58
2023/06/24 03:26:41;;;;;;;12.17;10.97;;;14.80;99.90;;;;;;4998043;28;20924;-58
2023/06/24 03:29:09;;;;;;;12.30;11.10;;;14.80;99.90;;;;;;4993451;28;20924;-58
2023/06/24 03:31:37;;;;;;;12.80;11.30;;;14.80;99.90;;;;;;4994134;28;20483;-58
2023/06/24 03:34:05;;;;;;;12.43;11.23;;;14.80;99.90;;;;;;4997920;28;21863;-58
2023/06/24 03:36:34;;;;;;;12.27;10.97;;;14.80;99.90;;;;;;4998561;28;20468;-58
2023/06/24 03:39:03;;;;;;;12.93;11.57;;;14.80;99.90;;;;;;4996414;28;20482;-58
2023/06/24 03:41:31;;;;;;;13.10;11.90;;;14.80;99.90;;;;;;4994404;28;20512;-59
2023/06/24 03:44:00;;;;;;;11.63;10.60;;;14.80;99.90;;;;;;4991136;28;20497;-58
2023/06/24 03:46:32;;;;;;;11.70;10.57;;;14.80;99.90;;;;;;4993484;28;20468;-59
2023/06/24 03:49:00;;;;;;;12.30;11.10;;;14.80;99.90;;;;;;4993719;28;20478;-59
2023/06/24 03:51:28;;;;;;;12.50;11.40;;;14.80;99.90;;;;;;4992027;28;20495;-58
2023/06/24 03:53:56;;;;;;;13.40;12.00;;;14.80;99.90;;;;;;4997224;28;20595;-58
2023/06/24 03:56:24;;;;;;;12.27;11.17;;;14.80;99.90;;;;;;4994930;28;20477;-58
2023/06/24 03:58:52;;;;;;;12.70;11.50;;;14.80;99.90;;;;;;4995281;28;20516;-58
2023/06/24 04:01:22;;;;;;;13.13;11.87;;;14.90;99.90;;;;;;4989458;28;20512;-58
2023/06/24 04:03:50;;;;;;;12.00;10.97;;;14.90;99.90;;;;;;4991992;28;21034;-59
2023/06/24 04:06:18;;;;;;;12.97;11.67;;;14.90;99.90;;;;;;4993308;28;20889;-59
2023/06/24 04:08:48;;;;;;;12.53;11.23;;;14.90;99.90;;;;;;4999101;28;20473;-58
2023/06/24 04:11:16;;;;;;;12.57;11.37;;;15.00;99.90;;;;;;4992473;28;20480;-58
2023/06/24 04:13:45;;;;;;;12.50;11.30;;;15.00;99.90;;;;;;4994233;28;20615;-58
2023/06/24 04:16:13;;;;;;;12.10;10.90;;;15.10;99.90;;;;;;4996042;28;20551;-58
2023/06/24 04:18:42;;;;;;;13.00;11.70;;;15.10;99.90;;;;;;5004196;28;20496;-57
2023/06/24 04:21:10;;;;;;;11.57;10.53;;;15.10;99.90;;;;;;5014640;28;20560;-57
2023/06/24 04:23:38;;;;;;;13.23;11.57;;;15.20;99.90;;;;;;4990492;28;20916;-58
2023/06/24 04:26:06;;;;;;;12.87;11.77;;;15.30;99.90;;;;;;4990873;28;20503;-58
2023/06/24 04:28:34;;;;;;;12.80;11.50;;;15.30;99.90;;;;;;4988458;28;20477;-58
2023/06/24 04:31:02;;;;;;;12.80;11.60;;;15.40;99.90;;;;;;4991877;28;20531;-58
2023/06/24 04:33:30;;;;;;;13.53;11.10;;;15.40;99.90;;;;;;4991128;28;20475;-58
2023/06/24 04:36:00;;;;;;;12.43;11.23;;;15.50;99.90;;;;;;4994035;28;20525;-58
2023/06/24 04:38:28;;;;;;;12.60;11.40;;;15.60;99.90;;;;;;4993851;28;20468;-58
2023/06/24 04:40:59;;;;;;;11.93;10.73;;;15.60;99.90;;;;;;4988266;28;20564;-58
2023/06/24 04:43:27;;;;;;;13.00;11.70;;;15.60;99.90;;;;;;4986844;28;20923;-58
2023/06/24 04:45:56;;;;;;;12.23;11.07;;;15.60;99.90;;;;;;4998761;28;20557;-58
2023/06/24 04:48:24;;;;;;;13.40;11.57;;;15.70;99.90;;;;;;4991353;28;20597;-58
2023/06/24 04:50:54;;;;;;;13.30;12.00;;;15.70;99.90;;;;;;4994293;28;20476;-58
2023/06/24 04:53:24;;;;;;;11.67;10.50;;;15.80;99.90;;;;;;4994418;28;20520;-58
2023/06/24 04:55:52;;;;;;;13.00;10.73;;;15.90;99.90;;;;;;4998078;28;20498;-58
2023/06/24 04:58:20;;;;;;;12.80;11.40;;;15.90;99.90;;;;;;4997706;28;20559;-58
2023/06/24 05:00:48;;;;;;;11.50;10.40;;;16.00;99.90;;;;;;4993240;28;20551;-58
2023/06/24 05:03:16;;;;;;;11.50;10.50;;;16.00;99.90;;;;;;4992259;28;20491;-58
2023/06/24 05:05:44;;;;;;;11.43;10.43;;;16.00;99.90;;;;;;4994775;28;20492;-58
2023/06/24 05:08:12;;;;;;;11.13;10.03;;;16.00;99.90;;;;;;4992273;28;20481;-58
2023/06/24 05:10:41;;;;;;;10.90;9.83;;;16.10;99.90;;;;;;4997938;28;20576;-58
2023/06/24 05:13:09;;;;;;;9.93;8.93;;;16.10;99.90;;;;;;4999973;28;21028;-58
2023/06/24 05:15:37;;;;;;;9.90;9.00;;;16.10;99.90;;;;;;4998563;28;20547;-58
2023/06/24 05:18:05;;;;;;;9.57;8.67;;;16.20;99.90;;;;;;4991008;28;20530;-58
2023/06/24 05:20:33;;;;;;;9.80;8.97;;;16.20;99.90;;;;;;4992052;28;20563;-58
2023/06/24 05:23:01;;;;;;;9.03;8.13;;;16.30;99.90;;;;;;4989137;28;20517;-58
2023/06/24 05:25:29;;;;;;;10.00;7.73;;;16.30;99.90;;;;;;4988547;28;20587;-58
2023/06/24 05:27:59;;;;;;;7.73;7.13;;;16.40;99.90;;;;;;4992546;28;20568;-58
2023/06/24 05:30:27;;;;;;;6.83;6.23;;;16.40;99.90;;;;;;4990608;28;20464;-58
2023/06/24 05:32:55;;;;;;;8.53;7.60;;;16.50;99.90;;;;;;4982827;28;20488;-58
2023/06/24 05:35:23;;;;;;;7.27;6.57;;;16.50;99.90;;;;;;4989988;28;20887;-58
2023/06/24 05:37:51;;;;;;;7.80;7.17;;;16.60;99.90;;;;;;4993121;28;20484;-58
2023/06/24 05:40:19;;;;;;;7.20;6.60;;;16.60;99.90;;;;;;4988497;28;20471;-58
2023/06/24 05:42:47;;;;;;;7.63;6.90;;;16.70;99.90;;;;;;4987111;28;20574;-58
2023/06/24 05:45:16;;;;;;;9.63;7.50;;;16.80;99.90;;;;;;4994006;28;20496;-58
2023/06/24 05:47:46;;;;;;;8.30;6.50;;;16.80;99.90;;;;;;4989445;28;20518;-58
2023/06/24 05:50:14;;;;;;;7.50;6.90;;;16.80;99.90;;;;;;4995446;28;20468;-58
2023/06/24 05:52:43;;;;;;;5.90;5.40;;;16.80;99.90;;;;;;4993660;28;20484;-58
2023/06/24 05:55:13;;;;;;;7.37;6.67;;;16.90;99.90;;;;;;4989478;28;20578;-58
2023/06/24 05:57:41;;;;;;;6.87;6.17;;;16.90;99.90;;;;;;4994322;28;20468;-58
2023/06/24 06:00:10;;;;;;;7.33;6.67;;;17.00;99.90;;;;;;4985415;28;20576;-60
2023/06/24 06:02:39;;;;;;;7.93;6.47;;;17.10;99.90;;;;;;4987258;28;20622;-61
2023/06/24 06:05:08;;;;;;;7.93;7.23;;;17.10;99.90;;;;;;4992160;28;20578;-59
2023/06/24 06:07:38;;;;;;;7.10;6.50;;;17.10;99.90;;;;;;4999405;28;20476;-60
2023/06/24 06:10:07;;;;;;;7.93;7.03;;;17.10;99.90;;;;;;4996005;28;20575;-60
2023/06/24 06:12:35;;;;;;;7.77;7.07;;;17.20;99.90;;;;;;4986836;28;20572;-61
2023/06/24 06:15:03;;;;;;;8.67;7.97;;;17.30;99.90;;;;;;4983225;28;24692;-61
2023/06/24 06:17:31;;;;;;;7.23;6.30;;;17.30;99.90;;;;;;4990110;28;20551;-60
2023/06/24 06:20:00;;;;;;;8.83;7.00;;;17.40;99.90;;;;;;4992707;28;20471;-60
2023/06/24 06:22:28;;;;;;;8.30;7.50;;;17.50;99.90;;;;;;4998643;28;20490;-61
2023/06/24 06:24:56;;;;;;;8.00;7.30;;;17.50;99.90;;;;;;4996856;28;20500;-60
2023/06/24 06:27:24;;;;;;;7.97;7.30;;;17.50;99.90;;;;;;4993911;28;20559;-60
2023/06/24 06:29:52;;;;;;;7.17;6.40;;;17.50;99.90;;;;;;4988206;28;21057;-61
2023/06/24 06:32:20;;;;;;;6.80;6.30;;;17.60;99.90;;;;;;4980751;28;20520;-60
2023/06/24 06:34:48;;;;;;;6.80;6.20;;;17.60;99.90;;;;;;4988492;28;20521;-61
2023/06/24 06:37:18;;;;;;;6.73;6.23;;;17.60;99.90;;;;;;4998861;28;20551;-61
2023/06/24 06:39:46;;;;;;;6.33;5.73;;;17.70;99.90;;;;;;4997215;28;20482;-61
2023/06/24 06:42:14;;;;;;;6.60;5.93;;;17.80;99.90;;;;;;4988256;28;20508;-61
2023/06/24 06:44:42;;;;;;;6.50;6.00;;;17.80;99.90;;;;;;4980463;28;20631;-61
2023/06/24 06:47:11;;;;;;;6.33;5.73;;;17.80;99.90;;;;;;4985377;28;20583;-61
2023/06/24 06:49:39;;;;;;;6.37;5.87;;;17.80;99.90;;;;;;4988291;28;20572;-61
2023/06/24 06:52:08;;;;;;;6.40;5.90;;;17.80;99.90;;;;;;4989430;28;20494;-61
2023/06/24 06:54:37;;;;;;;6.80;6.20;;;17.80;99.90;;;;;;4987319;28;20571;-61
2023/06/24 06:57:06;;;;;;;6.60;6.10;;;17.80;99.90;;;;;;4987651;28;20560;-58
2023/06/24 06:59:34;;;;;;;7.13;6.10;;;17.90;99.90;;;;;;4994107;28;20944;-61
2023/06/24 07:02:02;;;;;;;6.23;5.63;;;18.00;99.90;;;;;;4987261;28;20507;-59
2023/06/24 07:04:31;;;;;;;6.13;5.63;;;18.10;99.90;;;;;;4970931;28;22032;-59
2023/06/24 07:06:59;;;;;;;6.00;5.50;;;18.20;99.90;;;;;;4980924;28;20488;-59
2023/06/24 07:09:28;;;;;;;5.87;5.40;;;18.30;99.90;;;;;;4966069;28;20472;-59
2023/06/24 07:11:57;;;;;;;6.50;5.90;;;18.30;99.90;;;;;;4978293;28;20492;-59
2023/06/24 07:14:25;;;;;;;5.50;5.00;;;18.30;99.90;;;;;;4972773;28;21322;-59
2023/06/24 07:16:53;;;;;;;6.50;5.37;;;18.40;99.90;;;;;;4981680;28;20933;-59
2023/06/24 07:19:21;;;;;;;5.00;4.60;;;18.40;99.90;;;;;;4981661;28;20472;-61
2023/06/24 07:21:49;;;;;;;5.40;4.90;;;18.50;99.90;;;;;;4979974;28;20518;-61
2023/06/24 07:24:17;;;;;;;5.67;5.00;;;18.40;99.90;;;;;;4981980;28;21013;-61
2023/06/24 07:26:45;;;;;;;6.07;5.60;;;18.50;99.90;;;;;;4982658;28;20522;-61
2023/06/24 07:29:14;;;;;;;5.60;5.00;;;18.50;99.90;;;;;;4977791;28;21001;-61
2023/06/24 07:31:44;;;;;;;5.43;4.93;;;18.60;99.90;;;;;;4983279;28;23211;-59
2023/06/24 07:34:12;;;;;;;5.50;5.10;;;18.60;99.90;;;;;;4985219;28;21029;-59
2023/06/24 07:36:40;;;;;;;5.13;4.70;;;18.70;99.90;;;;;;4982981;28;20481;-59
2023/06/24 07:39:08;;;;;;;4.90;4.33;;;18.80;99.90;;;;;;4998492;28;20778;-60
2023/06/24 07:41:36;;;;;;;5.30;4.90;;;18.90;99.90;;;;;;4999090;28;20599;-59
2023/06/24 07:44:04;;;;;;;6.73;5.27;;;18.90;99.90;;;;;;4999758;28;20507;-60
2023/06/24 07:46:34;;;;;;;5.53;5.13;;;19.00;99.90;;;;;;4999089;28;20915;-60
2023/06/24 07:49:02;;;;;;;6.13;5.63;;;19.00;99.90;;;;;;4995889;28;20507;-60
2023/06/24 07:51:30;;;;;;;5.97;5.30;;;19.00;99.90;;;;;;4994560;28;20481;-61
2023/06/24 07:53:58;;;;;;;4.90;4.50;;;19.10;99.90;;;;;;4989272;28;20474;-60
2023/06/24 07:56:26;;;;;;;6.33;5.83;;;19.20;99.90;;;;;;5000514;28;20547;-60
2023/06/24 07:58:54;;;;;;;5.63;5.23;;;19.30;99.90;;;;;;4998365;28;20568;-60
2023/06/24 08:01:22;;;;;;;5.20;4.70;;;19.50;99.90;;;;;;4994169;28;20492;-60
2023/06/24 08:03:51;;;;;;;6.40;5.80;;;19.60;99.90;;;;;;4994448;28;20476;-58
2023/06/24 08:06:20;;;;;;;6.00;5.50;;;19.70;99.90;;;;;;4999227;28;20550;-58
2023/06/24 08:08:48;;;;;;;5.90;5.40;;;19.80;99.90;;;;;;5000976;28;20530;-58
2023/06/24 08:11:16;;;;;;;6.53;6.00;;;20.00;99.90;;;;;;4992429;28;20571;-57
2023/06/24 08:13:44;;;;;;;5.33;4.53;;;20.10;99.90;;;;;;4999203;28;20893;-58
2023/06/24 08:16:12;;;;;;;5.43;5.03;;;20.10;99.90;;;;;;5001318;28;20518;-58
2023/06/24 08:18:40;;;;;;;5.47;5.07;;;20.10;99.90;;;;;;4997510;28;21009;-58
2023/06/24 08:21:09;;;;;;;5.07;4.67;;;20.10;99.90;;;;;;4993263;28;20484;-58
2023/06/24 08:23:37;;;;;;;5.27;4.43;;;20.20;99.90;;;;;;5015387;28;20482;-58
2023/06/24 08:26:05;;;;;;;6.00;5.50;;;20.30;99.90;;;;;;5013793;28;20583;-58
2023/06/24 08:28:44;;;;;;;6.60;6.00;;;20.30;99.90;;;;;;5013982;28;20474;-59
2023/06/24 08:31:12;;;;;;;5.47;5.03;;;20.10;99.90;;;;;;5012466;28;20566;-59
2023/06/24 08:33:43;;;;;;;6.37;5.97;;;20.10;99.90;;;;;;5011902;28;20476;-59
2023/06/24 08:36:12;;;;;;;5.90;5.40;;;20.10;99.90;;;;;;5017712;28;20493;-58
2023/06/24 08:38:40;;;;;;;5.37;4.87;;;20.20;99.90;;;;;;5016041;28;20493;-59
2023/06/24 08:41:08;;;;;;;5.70;5.20;;;20.30;99.90;;;;;;5009736;28;20574;-59
2023/06/24 08:43:37;;;;;;;5.43;5.03;;;20.40;99.90;;;;;;5015822;28;20504;-59
2023/06/24 08:46:05;;;;;;;7.30;5.30;;;20.40;99.90;;;;;;5011335;28;20518;-59
2023/06/24 08:48:39;;;;;;;5.47;5.00;;;20.50;99.90;;;;;;5016386;28;20598;-58
2023/06/24 08:51:09;;;;;;;5.67;4.87;;;20.60;99.90;;;;;;5009908;28;20488;-58
2023/06/24 08:53:42;;;;;;;6.43;5.93;;;20.60;99.90;;;;;;5012562;28;20468;-59
2023/06/24 08:56:11;;;;;;;6.30;5.80;;;20.60;99.90;;;;;;5011151;28;20535;-59
2023/06/24 08:58:39;;;;;;;6.17;5.67;;;20.60;99.90;;;;;;5000140;28;20505;-59
2023/06/24 09:01:07;;;;;;;5.97;5.57;;;20.60;99.90;;;;;;4995486;28;20592;-59
2023/06/24 09:03:35;;;;;;;6.07;5.57;;;20.60;99.90;;;;;;4998768;28;20564;-58
2023/06/24 09:06:04;;;;;;;6.13;5.00;;;20.60;99.90;;;;;;4991325;28;20499;-58
2023/06/24 09:08:35;;;;;;;5.77;5.30;;;20.60;99.90;;;;;;4993943;28;21076;-59
2023/06/24 09:11:04;;;;;;;5.87;5.47;;;20.80;99.90;;;;;;4999616;28;20674;-59
2023/06/24 09:13:37;;;;;;;6.00;5.50;;;20.80;99.90;;;;;;4995664;28;20555;-58
2023/06/24 09:16:15;;;;;;;6.13;5.63;;;20.90;99.90;;;;;;4994751;28;20586;-59
2023/06/24 09:18:48;;;;;;;5.27;4.87;;;20.90;99.90;;;;;;4995227;28;20529;-59
2023/06/24 09:21:23;;;;;;;7.43;5.37;;;21.00;99.90;;;;;;4995827;28;20579;-58
2023/06/24 09:23:55;;;;;;;6.60;4.90;;;21.00;99.90;;;;;;4997078;28;20507;-59
2023/06/24 09:26:26;;;;;;;6.00;5.50;;;20.90;99.90;;;;;;4988780;28;21062;-62
2023/06/24 09:28:55;;;;;;;4.53;4.17;;;20.90;99.90;;;;;;4993550;28;20505;-61
2023/06/24 09:31:24;;;;;;;5.80;5.30;;;20.90;99.90;;;;;;4993078;28;20574;-59
2023/06/24 09:33:58;;;;;;;5.30;4.90;;;21.00;99.90;;;;;;4990937;28;20465;-60
2023/06/24 09:36:26;;;;;;;6.47;5.90;;;21.10;99.90;;;;;;4996828;28;20460;-62
2023/06/24 09:38:57;;;;;;;5.50;5.10;;;21.20;99.90;;;;;;4993951;28;20480;-61
2023/06/24 09:41:28;;;;;;;5.43;5.03;;;21.30;99.90;;;;;;4988859;28;21004;-62
2023/06/24 09:43:59;;;;;;;4.97;4.53;;;21.40;99.90;;;;;;4993201;28;20460;-61
2023/06/24 09:46:29;;;;;;;5.53;5.13;;;21.50;99.90;;;;;;4998096;28;20488;-62
2023/06/24 09:48:57;;;;;;;5.77;4.80;;;21.50;99.90;;;;;;4993186;28;20501;-62
2023/06/24 09:51:26;;;;;;;5.50;5.10;;;21.60;99.90;;;;;;4988833;28;20550;-61
2023/06/24 09:53:57;;;;;;;5.40;4.90;;;21.60;99.90;;;;;;4990772;28;20475;-61
2023/06/24 09:56:27;;;;;;;5.53;5.13;;;21.70;99.90;;;;;;4998259;28;20464;-61
2023/06/24 09:58:55;;;;;;;5.80;5.30;;;21.80;99.90;;;;;;4990787;28;20831;-61
2023/06/24 10:01:23;;;;;;;5.57;5.07;;;21.90;99.90;;;;;;4992401;28;20575;-61
2023/06/24 10:03:51;;;;;;;5.50;5.10;;;21.90;99.90;;;;;;4992196;28;20482;-61
2023/06/24 10:06:20;;;;;;;5.30;4.90;;;21.90;99.90;;;;;;4997569;28;20495;-61
2023/06/24 10:08:48;;;;;;;5.97;5.37;;;21.90;99.90;;;;;;4997759;28;20565;-60
2023/06/24 10:11:16;;;;;;;6.33;5.80;;;22.00;99.90;;;;;;4994423;28;20567;-61
2023/06/24 10:13:46;;;;;;;6.30;5.60;;;22.00;99.90;;;;;;4986863;28;20975;-61
2023/06/24 10:16:15;;;;;;;6.13;5.70;;;22.10;99.90;;;;;;4985641;28;20740;-61
2023/06/24 10:18:45;;;;;;;5.47;5.00;;;22.00;99.90;;;;;;4985135;28;20978;-61
2023/06/24 10:21:17;;;;;;;7.60;4.80;;;22.00;99.90;;;;;;4996736;28;20509;-60
2023/06/24 10:23:53;;;;;;;5.90;5.50;;;22.10;99.90;;;;;;4990408;28;20476;-61
2023/06/24 10:26:28;;;;;;;5.73;5.33;;;22.20;99.90;;;;;;4989967;28;21056;-61
2023/06/24 10:29:17;;;;;;;5.60;5.20;;;22.20;99.90;;;;;;4997110;28;20472;-60
2023/06/24 10:31:53;;;;;;;6.60;6.20;;;22.40;99.90;;;;;;4989964;28;20488;-62
2023/06/24 10:34:25;;;;;;;6.20;5.70;;;22.50;99.90;;;;;;4983659;28;20520;-61
2023/06/24 10:36:55;;;;;;;6.27;5.87;;;22.50;99.90;;;;;;4998609;28;20560;-61
2023/06/24 10:39:40;;;;;;;5.77;5.37;;;22.70;99.90;;;;;;4991009;28;20919;-60
2023/06/24 10:42:39;;;;;;;5.73;5.33;;;22.70;99.90;;;;;;4997158;28;20488;-61
2023/06/24 10:45:20;;;;;;;6.10;5.50;;;22.80;99.90;;;;;;4995171;28;20492;-61
2023/06/24 10:47:49;;;;;;;5.37;4.97;;;23.00;99.90;;;;;;5000127;28;20520;-61
2023/06/24 10:50:21;;;;;;;5.77;5.27;;;23.10;99.90;;;;;;4997635;28;20469;-61
2023/06/24 10:52:53;;;;;;;5.10;4.70;;;23.30;99.90;;;;;;4996921;28;20493;-61
2023/06/24 10:55:22;;;;;;;6.07;5.50;;;23.40;99.90;;;;;;4996370;28;20576;-61
2023/06/24 10:57:50;;;;;;;5.83;5.23;;;23.40;99.90;;;;;;4988052;28;20555;-61
2023/06/24 11:00:22;;;;;;;6.00;5.57;;;23.40;99.90;;;;;;4985022;28;20567;-62
2023/06/24 11:02:50;;;;;;;5.23;4.73;;;23.40;99.90;;;;;;4986245;28;20515;-61
2023/06/24 11:05:19;;;;;;;5.10;4.70;;;23.50;99.90;;;;;;4991674;28;20547;-61
2023/06/24 11:07:47;;;;;;;5.20;4.80;;;23.60;99.90;;;;;;4988714;28;20500;-61
2023/06/24 11:10:16;;;;;;;4.93;4.53;;;23.70;99.90;;;;;;4985646;28;20480;-61
2023/06/24 11:12:46;;;;;;;4.80;4.50;;;23.80;99.90;;;;;;4987186;28;20550;-61
2023/06/24 11:15:14;;;;;;;4.63;4.33;;;23.80;99.90;;;;;;4996761;28;20488;-62
2023/06/24 11:17:44;;;;;;;4.93;4.63;;;23.80;99.90;;;;;;4999147;28;20468;-61
2023/06/24 11:20:13;;;;;;;5.43;5.10;;;23.90;99.90;;;;;;4996437;28;20479;-61
2023/06/24 11:22:42;;;;;;;4.73;4.43;;;24.00;99.90;;;;;;4987184;28;21013;-62
2023/06/24 11:25:16;;;;;;;5.40;5.00;;;24.10;99.90;;;;;;4983786;28;22818;-61
2023/06/24 11:27:44;;;;;;;5.37;4.93;;;24.20;99.90;;;;;;4991178;28;20489;-61
2023/06/24 11:30:13;;;;;;;5.20;4.80;;;24.30;99.90;;;;;;4994713;28;20536;-65
2023/06/24 11:32:44;;;;;;;5.87;5.47;;;24.40;99.90;;;;;;5001004;28;21029;-61
2023/06/24 11:35:14;;;;;;;5.30;4.90;;;24.40;99.90;;;;;;4997010;28;21005;-61
2023/06/24 11:37:44;;;;;;;5.70;5.30;;;24.30;99.90;;;;;;4995178;28;22387;-61
2023/06/24 11:40:16;;;;;;;5.67;5.27;;;24.50;99.90;;;;;;4997504;28;20470;-62
2023/06/24 11:42:46;;;;;;;5.50;5.10;;;24.60;99.90;;;;;;5000301;28;20500;-61
2023/06/24 11:45:15;;;;;;;5.50;5.03;;;24.60;99.90;;;;;;4999610;28;20519;-61
2023/06/24 11:47:45;;;;;;;5.50;5.07;;;24.80;99.90;;;;;;5003830;28;20495;-61
2023/06/24 11:50:13;;;;;;;5.87;5.37;;;24.80;99.90;;;;;;4996562;28;20468;-61
2023/06/24 11:52:43;;;;;;;5.30;5.00;;;24.70;99.90;;;;;;4993224;28;20520;-61
2023/06/24 11:55:17;;;;;;;6.00;5.50;;;24.80;99.90;;;;;;5002773;28;20495;-61
2023/06/24 11:57:50;;;;;;;5.77;5.27;;;24.90;99.90;;;;;;4999864;28;20550;-62
2023/06/24 12:00:21;;;;;;;5.33;4.90;;;25.10;99.90;;;;;;4999998;28;20588;-61
2023/06/24 12:02:54;;;;;;;5.40;5.00;;;25.30;99.90;;;;;;4992786;28;20516;-63
2023/06/24 12:05:29;;;;;;;5.60;5.20;;;25.40;99.90;;;;;;4992102;28;21073;-59
2023/06/24 12:07:58;;;;;;;5.70;5.20;;;25.50;99.90;;;;;;4986409;28;20530;-58
2023/06/24 12:10:28;;;;;;;5.27;4.87;;;25.50;99.90;;;;;;4992427;28;20480;-59
2023/06/24 12:12:58;;;;;;;6.10;5.60;;;25.50;99.90;;;;;;4990864;28;20519;-59
2023/06/24 12:15:26;;;;;;;5.37;4.97;;;25.50;99.90;;;;;;4994826;28;20544;-59
2023/06/24 12:17:55;;;;;;;6.60;6.10;;;25.50;99.90;;;;;;5001445;28;20594;-59
2023/06/24 12:20:25;;;;;;;5.63;5.07;;;25.60;99.90;;;;;;5003151;28;20469;-58
2023/06/24 12:22:57;;;;;;;5.10;4.70;;;25.70;99.90;;;;;;4994911;28;20492;-59
2023/06/24 12:25:25;;;;;;;4.90;4.60;;;25.70;99.90;;;;;;4996454;28;20886;-59
2023/06/24 12:27:53;;;;;;;5.33;4.93;;;25.80;99.90;;;;;;4985956;28;20504;-58
2023/06/24 12:30:21;;;;;;;6.00;5.50;;;26.00;99.90;;;;;;4975934;28;20503;-60
2023/06/24 12:32:51;;;;;;;5.60;5.20;;;26.10;99.90;;;;;;4986553;28;21022;-60
2023/06/24 12:35:20;;;;;;;6.00;5.43;;;26.20;99.90;;;;;;4988237;28;21115;-59
2023/06/24 12:37:48;;;;;;;5.33;4.47;;;26.30;99.90;;;;;;4981814;28;20476;-59
2023/06/24 12:40:16;;;;;;;5.50;5.00;;;26.30;99.90;;;;;;4988252;28;20917;-59
2023/06/24 12:42:44;;;;;;;5.67;5.27;;;26.30;99.90;;;;;;4984716;28;20488;-57
2023/06/24 12:45:13;;;;;;;5.50;5.10;;;26.40;99.90;;;;;;4985357;28;21234;-56
2023/06/24 12:47:41;;;;;;;8.00;4.80;;;26.50;99.90;;;;;;4984858;28;20611;-58
2023/06/24 12:50:10;;;;;;;5.67;5.17;;;26.40;99.90;;;;;;4975127;28;20656;-57